Time;durP1;ratioP1;P1;durP2;ratioP2;P2;SDS_P1;SDS_P2;PMS_P1;PMS_P2;Temp;Humidity;BMP_temperature;BMP_pressure;BME280_temperature;BME280_humidity;BME280_pressure;Samples;Min_cycle;Max_cycle;Signal;HPM_P1;HPM_P2
2021/07/17 00:02:24;;;;;;;32.63;22.02;;;16.80;93.20;;;;;;6219049;23;20004;-82
2021/07/17 00:04:50;;;;;;;30.65;20.85;;;16.80;93.60;;;;;;6219526;23;20012;-81
2021/07/17 00:07:16;;;;;;;33.35;22.02;;;16.80;93.20;;;;;;6218790;23;20028;-82
2021/07/17 00:09:41;;;;;;;37.60;22.90;;;16.80;93.20;;;;;;6219426;23;20023;-81
2021/07/17 00:12:08;;;;;;;39.10;23.45;;;16.80;93.10;;;;;;6219241;23;20000;-82
2021/07/17 00:14:33;;;;;;;43.33;25.70;;;16.80;93.00;;;;;;6217505;23;20700;-82
2021/07/17 00:16:59;;;;;;;40.97;24.77;;;16.70;93.70;;;;;;6193048;23;20020;-82
2021/07/17 00:19:25;;;;;;;50.45;27.38;;;16.60;93.70;;;;;;6219480;23;20004;-82
2021/07/17 00:21:50;;;;;;;45.88;26.27;;;16.50;93.40;;;;;;6218689;23;20001;-81
2021/07/17 00:24:16;;;;;;;48.38;26.90;;;16.50;93.50;;;;;;6219227;23;20075;-82
2021/07/17 00:26:42;;;;;;;53.50;28.27;;;16.40;93.70;;;;;;6218669;23;20012;-82
2021/07/17 00:29:07;;;;;;;47.05;26.88;;;16.30;93.90;;;;;;6219199;23;20001;-82
2021/07/17 00:31:33;;;;;;;59.05;29.75;;;16.30;93.60;;;;;;6217440;23;19997;-82
2021/07/17 00:33:59;;;;;;;50.08;28.77;;;16.20;94.10;;;;;;6219436;23;20004;-82
2021/07/17 00:36:25;;;;;;;73.10;33.25;;;16.20;93.70;;;;;;6218733;23;20003;-82
2021/07/17 00:38:51;;;;;;;62.05;31.27;;;16.10;93.80;;;;;;6219219;23;20028;-82
2021/07/17 00:41:16;;;;;;;78.32;35.53;;;16.10;93.50;;;;;;6192229;23;20011;-82
2021/07/17 00:43:42;;;;;;;61.63;32.58;;;16.10;93.60;;;;;;6218866;23;20297;-82
2021/07/17 00:46:08;;;;;;;69.10;31.48;;;16.00;93.20;;;;;;6217669;23;20009;-82
2021/07/17 00:48:34;;;;;;;55.38;29.55;;;16.00;93.00;;;;;;6218210;23;20032;-83
2021/07/17 00:51:00;;;;;;;65.15;32.03;;;15.90;93.10;;;;;;6219176;23;20024;-82
2021/07/17 00:53:25;;;;;;;55.58;30.05;;;15.90;93.00;;;;;;6219130;23;20004;-82
2021/07/17 00:55:53;;;;;;;59.67;31.45;;;15.90;93.00;;;;;;6218587;23;20075;-82
2021/07/17 00:58:26;;;;;;;85.28;35.90;;;15.90;92.70;;;;;;6218668;23;20362;-83
2021/07/17 01:00:54;;;;;;;62.13;29.47;;;15.90;93.20;;;;;;6190728;23;20015;-83
2021/07/17 01:03:20;;;;;;;79.90;34.33;;;15.80;92.80;;;;;;6219142;23;20122;-83
2021/07/17 01:05:47;;;;;;;70.63;33.55;;;15.80;92.80;;;;;;6219146;23;20398;-83
2021/07/17 01:08:14;;;;;;;75.57;33.83;;;15.70;93.00;;;;;;6218825;23;20005;-83
2021/07/17 01:10:40;;;;;;;66.53;31.75;;;15.70;93.20;;;;;;6191226;23;20486;-83
2021/07/17 01:13:06;;;;;;;65.00;32.53;;;15.70;92.90;;;;;;6189485;23;20050;-83
2021/07/17 01:15:31;;;;;;;53.83;29.17;;;15.70;92.70;;;;;;6215155;23;20015;-83
2021/07/17 01:17:57;;;;;;;64.10;34.38;;;15.70;92.80;;;;;;6217022;23;20270;-83
2021/07/17 01:20:24;;;;;;;58.22;31.30;;;15.70;92.60;;;;;;6216046;23;20007;-83
2021/07/17 01:22:51;;;;;;;76.90;35.10;;;15.80;92.80;;;;;;6189925;23;20095;-83
2021/07/17 01:25:23;;;;;;;60.30;30.80;;;15.70;92.90;;;;;;6189627;23;20009;-83
2021/07/17 01:27:53;;;;;;;57.50;30.40;;;15.70;92.80;;;;;;6216738;23;20369;-83
2021/07/17 01:30:21;;;;;;;61.38;32.13;;;15.70;92.70;;;;;;6216084;23;20000;-83
2021/07/17 01:32:47;;;;;;;67.50;34.30;;;15.60;92.90;;;;;;6215981;23;20000;-83
2021/07/17 01:35:13;;;;;;;56.28;30.52;;;15.60;92.80;;;;;;6216276;23;20003;-84
2021/07/17 01:37:39;;;;;;;67.05;33.45;;;15.70;92.30;;;;;;6217656;23;20004;-84
2021/07/17 01:40:07;;;;;;;77.10;33.53;;;15.70;92.70;;;;;;6218230;23;20243;-84
2021/07/17 01:42:36;;;;;;;62.95;33.78;;;15.70;92.60;;;;;;6218272;23;20001;-84
2021/07/17 01:45:04;;;;;;;63.15;32.75;;;15.70;92.30;;;;;;6216671;23;20091;-84
2021/07/17 01:47:30;;;;;;;62.42;31.27;;;15.80;92.30;;;;;;6218554;23;20382;-83
2021/07/17 01:49:58;;;;;;;70.00;33.75;;;15.70;92.50;;;;;;6218447;23;20004;-83
2021/07/17 01:52:23;;;;;;;79.25;34.28;;;15.70;92.60;;;;;;6218337;23;20028;-85
2021/07/17 01:54:49;;;;;;;53.10;30.50;;;15.70;92.80;;;;;;6218113;23;19997;-84
2021/07/17 01:57:14;;;;;;;55.47;30.55;;;15.70;92.60;;;;;;6192143;23;20004;-84
2021/07/17 01:59:41;;;;;;;57.50;31.92;;;15.70;92.90;;;;;;6216916;23;20005;-84
2021/07/17 02:02:09;;;;;;;61.67;31.85;;;15.70;92.80;;;;;;6219621;23;20011;-84
2021/07/17 02:04:35;;;;;;;61.65;30.80;;;15.70;92.70;;;;;;6220412;23;20270;-84
2021/07/17 02:07:03;;;;;;;68.05;34.42;;;15.70;92.70;;;;;;6220087;23;20008;-85
2021/07/17 02:09:28;;;;;;;56.03;28.75;;;15.70;92.80;;;;;;6193962;23;20366;-84
2021/07/17 02:11:54;;;;;;;64.07;31.70;;;15.70;92.90;;;;;;6220549;23;20007;-84
2021/07/17 02:14:20;;;;;;;59.20;29.70;;;15.70;92.90;;;;;;6219691;23;20003;-83
2021/07/17 02:16:46;;;;;;;62.83;33.35;;;15.70;92.70;;;;;;6220346;23;19997;-84
2021/07/17 02:19:20;;;;;;;66.72;32.05;;;15.70;92.60;;;;;;6220410;23;20009;-84
2021/07/17 02:21:52;;;;;;;56.65;30.80;;;15.70;92.80;;;;;;6193678;23;20393;-84
2021/07/17 02:24:19;;;;;;;49.20;28.38;;;15.70;92.60;;;;;;6220345;23;20039;-84
2021/07/17 02:26:49;;;;;;;49.63;29.25;;;15.70;92.60;;;;;;6220270;23;19997;-84
2021/07/17 02:29:17;;;;;;;45.88;27.13;;;15.70;92.60;;;;;;6192904;23;20005;-85
2021/07/17 02:31:43;;;;;;;47.92;28.33;;;15.80;92.50;;;;;;6220005;23;20001;-86
2021/07/17 02:34:10;;;;;;;51.95;28.42;;;15.70;92.70;;;;;;6220379;23;20031;-85
2021/07/17 02:36:36;;;;;;;47.20;27.80;;;15.80;92.70;;;;;;6220144;23;20035;-86
2021/07/17 02:39:04;;;;;;;53.40;28.73;;;15.70;92.80;;;;;;6193960;23;20012;-84
2021/07/17 02:41:29;;;;;;;51.10;29.05;;;15.70;92.90;;;;;;6193351;23;20035;-85
2021/07/17 02:43:56;;;;;;;64.47;30.85;;;15.70;92.80;;;;;;6219950;23;20008;-84
2021/07/17 02:46:21;;;;;;;67.43;32.40;;;15.80;93.00;;;;;;6218640;23;20270;-85
2021/07/17 02:48:47;;;;;;;59.70;29.33;;;15.70;93.00;;;;;;6193463;23;20019;-84
2021/07/17 02:51:12;;;;;;;65.13;31.70;;;15.70;92.80;;;;;;6220355;23;20000;-84
2021/07/17 02:53:38;;;;;;;55.33;28.88;;;15.70;92.80;;;;;;6218975;23;20047;-84
2021/07/17 02:56:04;;;;;;;80.38;33.13;;;15.70;92.60;;;;;;6219951;23;20008;-85
2021/07/17 02:58:30;;;;;;;78.35;33.83;;;15.70;92.70;;;;;;6219902;23;20006;-84
2021/07/17 03:00:56;;;;;;;87.45;35.72;;;15.70;92.70;;;;;;6218766;23;20028;-84
2021/07/17 03:03:22;;;;;;;82.72;34.85;;;15.60;92.70;;;;;;6219971;23;20011;-84
2021/07/17 03:05:49;;;;;;;84.78;35.78;;;15.60;92.70;;;;;;6219968;23;20027;-84
2021/07/17 03:08:19;;;;;;;62.95;32.40;;;15.60;92.30;;;;;;6193505;23;20013;-84
2021/07/17 03:10:45;;;;;;;54.55;31.23;;;15.60;92.30;;;;;;6220084;23;20023;-85
2021/07/17 03:13:11;;;;;;;57.05;30.77;;;15.60;92.50;;;;;;6220040;23;19997;-84
2021/07/17 03:15:37;;;;;;;74.82;33.83;;;15.60;92.40;;;;;;6218230;23;20058;-84
2021/07/17 03:18:03;;;;;;;75.60;33.45;;;15.50;92.50;;;;;;6219922;23;20052;-84
2021/07/17 03:20:28;;;;;;;59.63;31.17;;;15.60;92.20;;;;;;6219310;23;20000;-85
2021/07/17 03:22:54;;;;;;;59.60;31.45;;;15.50;92.20;;;;;;6193937;23;20008;-85
2021/07/17 03:25:20;;;;;;;57.53;31.50;;;15.50;92.40;;;;;;6220012;23;19997;-84
2021/07/17 03:27:46;;;;;;;61.85;30.27;;;15.50;92.30;;;;;;6193519;23;20012;-84
2021/07/17 03:30:12;;;;;;;58.45;29.55;;;15.50;92.20;;;;;;6218353;23;20016;-84
2021/07/17 03:32:38;;;;;;;95.00;35.30;;;15.50;92.40;;;;;;6219699;23;20119;-85
2021/07/17 03:35:05;;;;;;;64.20;32.13;;;15.50;92.20;;;;;;6219737;23;20043;-84
2021/07/17 03:37:31;;;;;;;51.95;28.63;;;15.50;92.40;;;;;;6193556;23;20051;-84
2021/07/17 03:39:56;;;;;;;73.20;33.10;;;15.50;92.30;;;;;;6193298;23;20008;-84
2021/07/17 03:42:22;;;;;;;67.10;30.95;;;15.50;92.50;;;;;;6219573;23;20001;-84
2021/07/17 03:44:48;;;;;;;63.33;32.80;;;15.40;92.50;;;;;;6217516;23;20009;-84
2021/07/17 03:47:14;;;;;;;68.10;31.60;;;15.40;92.40;;;;;;6219594;23;19996;-85
2021/07/17 03:49:40;;;;;;;58.40;28.85;;;15.40;92.50;;;;;;6218938;23;20000;-84
2021/07/17 03:52:06;;;;;;;80.07;32.10;;;15.40;92.40;;;;;;6219898;23;19997;-84
2021/07/17 03:54:32;;;;;;;48.53;26.00;;;15.40;92.60;;;;;;6218867;23;20004;-83
2021/07/17 03:56:57;;;;;;;40.65;20.77;;;15.50;92.40;;;;;;6219193;23;20380;-83
2021/07/17 03:59:23;;;;;;;37.08;21.23;;;15.40;92.60;;;;;;6217674;23;20009;-82
2021/07/17 04:01:51;;;;;;;47.40;23.80;;;15.40;92.60;;;;;;6219578;23;20004;-82
2021/07/17 04:04:17;;;;;;;46.50;23.90;;;15.40;93.10;;;;;;6219659;23;20028;-82
2021/07/17 04:06:43;;;;;;;43.08;24.25;;;15.30;92.70;;;;;;6193247;23;20005;-81
2021/07/17 04:09:08;;;;;;;57.58;26.70;;;15.30;92.70;;;;;;6219376;23;20001;-81
2021/07/17 04:11:34;;;;;;;42.67;25.15;;;15.30;92.70;;;;;;6218739;23;19997;-81
2021/07/17 04:13:59;;;;;;;49.75;26.40;;;15.30;92.50;;;;;;6218761;23;20075;-80
2021/07/17 04:16:25;;;;;;;60.67;26.92;;;15.30;92.60;;;;;;6216258;23;20003;-80
2021/07/17 04:18:51;;;;;;;58.97;27.65;;;15.30;92.70;;;;;;6216783;23;20358;-80
2021/07/17 04:21:16;;;;;;;58.42;26.75;;;15.30;92.50;;;;;;6216842;23;20005;-80
2021/07/17 04:23:42;;;;;;;54.88;26.10;;;15.30;92.60;;;;;;6216606;23;20004;-80
2021/07/17 04:26:08;;;;;;;48.88;26.02;;;15.30;92.90;;;;;;6217035;23;20239;-80
2021/07/17 04:28:35;;;;;;;51.90;26.73;;;15.30;92.40;;;;;;6216790;23;20046;-81
2021/07/17 04:31:02;;;;;;;56.78;27.15;;;15.30;92.50;;;;;;6189008;23;20004;-80
2021/07/17 04:33:28;;;;;;;68.60;29.15;;;15.20;92.60;;;;;;6190533;23;20397;-80
2021/07/17 04:35:54;;;;;;;54.95;26.65;;;15.30;92.50;;;;;;6216516;23;20031;-80
2021/07/17 04:38:20;;;;;;;50.15;26.95;;;15.30;92.70;;;;;;6216498;23;20007;-80
2021/07/17 04:40:46;;;;;;;59.45;27.45;;;15.30;92.60;;;;;;6218543;23;19997;-80
2021/07/17 04:43:12;;;;;;;66.07;29.30;;;15.30;92.60;;;;;;6218538;23;20032;-80
2021/07/17 04:45:37;;;;;;;59.47;28.38;;;15.20;92.70;;;;;;6190628;23;20023;-79
2021/07/17 04:48:06;;;;;;;51.85;26.30;;;15.30;92.30;;;;;;6190283;23;20385;-80
2021/07/17 04:50:33;;;;;;;51.25;27.27;;;15.30;92.50;;;;;;6218429;23;20006;-82
2021/07/17 04:53:02;;;;;;;57.10;28.55;;;15.30;92.40;;;;;;6219124;23;20259;-79
2021/07/17 04:55:27;;;;;;;71.38;28.75;;;15.30;92.70;;;;;;6191311;23;20250;-80
2021/07/17 04:57:53;;;;;;;68.60;28.83;;;15.20;92.70;;;;;;6218400;23;20083;-81
2021/07/17 05:00:19;;;;;;;54.72;26.60;;;15.20;92.70;;;;;;6217758;23;20079;-80
2021/07/17 05:02:50;;;;;;;53.22;26.65;;;15.20;92.70;;;;;;6218450;23;20024;-80
2021/07/17 05:05:17;;;;;;;79.78;30.52;;;15.20;92.50;;;;;;6217517;23;19997;-80
2021/07/17 05:07:46;;;;;;;62.97;28.25;;;15.20;92.80;;;;;;6192267;23;20016;-80
2021/07/17 05:10:13;;;;;;;62.25;28.67;;;15.20;92.30;;;;;;6192067;23;20029;-79
2021/07/17 05:12:39;;;;;;;76.45;29.48;;;15.20;92.30;;;;;;6191687;23;20301;-80
2021/07/17 05:15:07;;;;;;;49.35;25.35;;;15.20;92.80;;;;;;6216840;23;20071;-80
2021/07/17 05:17:32;;;;;;;69.57;28.75;;;15.10;92.50;;;;;;6218301;23;20362;-79
2021/07/17 05:19:58;;;;;;;52.10;26.25;;;15.10;92.60;;;;;;6218519;23;20029;-79
2021/07/17 05:22:23;;;;;;;51.92;25.95;;;15.10;92.40;;;;;;6218620;23;20092;-79
2021/07/17 05:24:52;;;;;;;55.95;27.58;;;15.10;92.60;;;;;;6192722;23;20008;-82
2021/07/17 05:27:18;;;;;;;63.55;28.70;;;15.10;92.60;;;;;;6217982;23;20673;-82
2021/07/17 05:29:43;;;;;;;68.18;28.48;;;15.00;92.50;;;;;;6218399;23;20291;-81
2021/07/17 05:32:09;;;;;;;47.70;25.02;;;15.10;92.60;;;;;;6218403;23;20080;-81
2021/07/17 05:34:35;;;;;;;73.85;28.75;;;15.10;92.60;;;;;;6218690;23;20068;-80
2021/07/17 05:37:01;;;;;;;59.80;27.77;;;15.00;92.50;;;;;;6194188;23;20005;-80
2021/07/17 05:39:27;;;;;;;69.68;27.02;;;15.10;92.60;;;;;;6220260;23;20019;-80
2021/07/17 05:41:52;;;;;;;75.28;28.33;;;15.10;92.30;;;;;;6220802;23;20075;-80
2021/07/17 05:44:18;;;;;;;63.97;25.20;;;15.00;92.90;;;;;;6219035;23;20019;-79
2021/07/17 05:46:43;;;;;;;63.13;27.17;;;15.00;92.50;;;;;;6220797;23;20005;-80
2021/07/17 05:49:09;;;;;;;62.85;25.95;;;15.00;92.40;;;;;;6220547;23;20008;-79
2021/07/17 05:51:35;;;;;;;52.60;24.65;;;15.10;92.40;;;;;;6220815;23;20001;-79
2021/07/17 05:54:00;;;;;;;46.42;25.05;;;15.10;92.40;;;;;;6220286;23;20065;-80
2021/07/17 05:56:26;;;;;;;60.15;25.35;;;15.10;92.00;;;;;;6220364;23;20024;-80
2021/07/17 05:58:51;;;;;;;71.15;27.00;;;15.20;92.20;;;;;;6220178;23;20008;-80
2021/07/17 06:01:17;;;;;;;42.47;23.42;;;15.30;92.30;;;;;;6218893;23;20054;-80
2021/07/17 06:03:43;;;;;;;43.63;23.02;;;15.30;92.30;;;;;;6193890;23;20027;-79
2021/07/17 06:06:09;;;;;;;39.67;21.05;;;15.30;92.80;;;;;;6220487;23;20005;-80
2021/07/17 06:08:38;;;;;;;47.72;21.90;;;15.20;92.80;;;;;;6220008;23;20028;-80
2021/07/17 06:11:04;;;;;;;34.88;20.10;;;15.20;92.80;;;;;;6220322;23;19997;-79
2021/07/17 06:13:30;;;;;;;38.47;20.13;;;15.20;92.60;;;;;;6219729;23;20076;-79
2021/07/17 06:15:56;;;;;;;41.22;19.77;;;15.30;92.50;;;;;;6218586;23;20005;-79
2021/07/17 06:18:21;;;;;;;32.45;19.58;;;15.30;93.00;;;;;;6194345;23;20054;-79
2021/07/17 06:20:48;;;;;;;36.38;20.17;;;15.30;93.30;;;;;;6220732;23;20008;-79
2021/07/17 06:23:13;;;;;;;41.35;20.70;;;15.30;93.00;;;;;;6193900;23;20020;-79
2021/07/17 06:25:39;;;;;;;45.55;21.33;;;15.40;93.10;;;;;;6220124;23;20477;-80
2021/07/17 06:28:05;;;;;;;44.40;21.10;;;15.40;93.40;;;;;;6193675;23;20005;-79
2021/07/17 06:30:30;;;;;;;36.45;20.27;;;15.40;93.40;;;;;;6218719;23;20394;-79
2021/07/17 06:32:56;;;;;;;41.58;20.67;;;15.40;93.90;;;;;;6219739;23;20005;-79
2021/07/17 06:35:22;;;;;;;37.97;21.13;;;15.30;93.70;;;;;;6220066;23;19996;-79
2021/07/17 06:37:48;;;;;;;44.35;21.50;;;15.30;93.60;;;;;;6220327;23;19998;-79
2021/07/17 06:40:17;;;;;;;49.45;23.65;;;15.40;94.00;;;;;;6220086;23;20001;-79
2021/07/17 06:42:48;;;;;;;43.95;22.55;;;15.40;94.10;;;;;;6193961;23;20035;-80
2021/07/17 06:45:14;;;;;;;50.92;24.95;;;15.40;94.00;;;;;;6218723;23;20016;-80
2021/07/17 06:47:40;;;;;;;54.72;23.92;;;15.40;93.80;;;;;;6193136;23;20009;-79
2021/07/17 06:50:07;;;;;;;62.88;25.77;;;15.40;93.70;;;;;;6193782;23;20099;-79
2021/07/17 06:52:34;;;;;;;78.22;26.60;;;15.50;93.60;;;;;;6220080;23;19997;-79
2021/07/17 06:55:00;;;;;;;53.00;24.40;;;15.50;93.90;;;;;;6193564;23;20095;-80
2021/07/17 06:57:26;;;;;;;41.75;21.45;;;15.50;94.20;;;;;;6193467;23;20000;-79
2021/07/17 06:59:51;;;;;;;47.15;21.60;;;15.40;93.90;;;;;;6218357;23;20001;-80
2021/07/17 07:02:17;;;;;;;56.50;24.00;;;15.50;93.60;;;;;;6219927;23;20377;-79
2021/07/17 07:04:43;;;;;;;58.70;25.13;;;15.50;93.90;;;;;;6219746;23;20007;-80
2021/07/17 07:07:08;;;;;;;53.42;24.30;;;15.40;94.30;;;;;;6220056;23;20000;-79
2021/07/17 07:09:34;;;;;;;43.90;23.25;;;15.30;94.20;;;;;;6220011;23;20007;-79
2021/07/17 07:11:59;;;;;;;54.60;24.27;;;15.30;94.00;;;;;;6193946;23;20005;-79
2021/07/17 07:14:25;;;;;;;58.53;24.92;;;15.30;93.90;;;;;;6218351;23;20001;-79
2021/07/17 07:16:51;;;;;;;69.40;26.98;;;15.40;93.30;;;;;;6219735;23;20011;-79
2021/07/17 07:19:17;;;;;;;66.80;26.17;;;15.50;93.60;;;;;;6193807;23;20058;-79
2021/07/17 07:21:43;;;;;;;67.82;26.60;;;15.40;93.60;;;;;;6219592;23;20431;-79
2021/07/17 07:24:08;;;;;;;63.08;26.30;;;15.40;93.80;;;;;;6219010;23;20035;-79
2021/07/17 07:26:34;;;;;;;55.42;25.98;;;15.40;93.80;;;;;;6219849;23;20011;-80
2021/07/17 07:29:00;;;;;;;56.92;26.95;;;15.50;93.10;;;;;;6192947;23;20266;-79
2021/07/17 07:31:29;;;;;;;53.95;24.63;;;15.50;93.80;;;;;;6218324;23;20308;-80
2021/07/17 07:33:55;;;;;;;53.47;24.10;;;15.50;94.10;;;;;;6193009;23;20719;-79
2021/07/17 07:36:21;;;;;;;52.78;24.15;;;15.40;94.40;;;;;;6219151;23;20028;-80
2021/07/17 07:38:47;;;;;;;54.15;26.05;;;15.50;93.90;;;;;;6219240;23;20026;-80
2021/07/17 07:41:13;;;;;;;57.05;26.83;;;15.50;94.20;;;;;;6219660;23;20046;-80
2021/07/17 07:43:41;;;;;;;69.88;26.58;;;15.50;94.10;;;;;;6193529;23;20095;-80
2021/07/17 07:46:06;;;;;;;61.40;27.38;;;15.50;93.90;;;;;;6217572;23;20012;-80
2021/07/17 07:48:33;;;;;;;59.40;26.85;;;15.50;93.90;;;;;;6192727;23;20362;-80
2021/07/17 07:50:59;;;;;;;58.80;26.00;;;15.50;93.90;;;;;;6219536;23;20023;-80
2021/07/17 07:53:25;;;;;;;46.67;23.20;;;15.50;93.70;;;;;;6219099;23;20024;-80
2021/07/17 07:55:51;;;;;;;56.53;25.50;;;15.60;93.60;;;;;;6193088;23;20008;-81
2021/07/17 07:58:16;;;;;;;56.05;25.13;;;15.60;93.70;;;;;;6218832;23;20294;-80
2021/07/17 08:00:42;;;;;;;49.20;24.25;;;15.60;93.90;;;;;;6217995;23;20281;-80
2021/07/17 08:03:08;;;;;;;60.65;26.45;;;15.60;94.20;;;;;;6219459;23;20012;-80
2021/07/17 08:05:34;;;;;;;58.50;27.38;;;15.60;94.30;;;;;;6218881;23;20266;-80
2021/07/17 08:07:59;;;;;;;53.00;25.30;;;15.70;94.30;;;;;;6192785;23;20659;-80
2021/07/17 08:10:25;;;;;;;47.28;25.08;;;15.70;94.40;;;;;;6219853;23;20444;-80
2021/07/17 08:12:54;;;;;;;53.63;24.92;;;15.80;93.70;;;;;;6219015;23;19996;-80
2021/07/17 08:15:20;;;;;;;52.55;24.55;;;15.90;94.70;;;;;;6191541;23;20011;-80
2021/07/17 08:17:46;;;;;;;53.33;24.85;;;15.70;95.20;;;;;;6219153;23;20318;-80
2021/07/17 08:20:12;;;;;;;47.28;23.85;;;15.70;94.90;;;;;;6219306;23;20244;-79
2021/07/17 08:22:42;;;;;;;42.83;22.88;;;15.80;94.70;;;;;;6219281;23;20031;-81
2021/07/17 08:25:09;;;;;;;43.38;22.98;;;15.90;94.90;;;;;;6219227;23;20004;-81
2021/07/17 08:27:35;;;;;;;41.72;23.35;;;16.00;95.30;;;;;;6219167;23;20004;-81
2021/07/17 08:30:01;;;;;;;43.95;24.15;;;15.90;95.60;;;;;;6190267;23;20008;-81
2021/07/17 08:32:27;;;;;;;45.83;23.20;;;15.90;96.00;;;;;;6218918;23;20001;-81
2021/07/17 08:34:54;;;;;;;47.25;23.83;;;15.90;96.40;;;;;;6218876;23;20441;-81
2021/07/17 08:37:21;;;;;;;43.85;22.92;;;16.00;95.80;;;;;;6192065;23;20083;-80
2021/07/17 08:39:47;;;;;;;49.42;23.58;;;16.00;96.20;;;;;;6218835;23;20008;-80
2021/07/17 08:42:16;;;;;;;47.75;24.98;;;16.00;96.50;;;;;;6219170;23;20001;-80
2021/07/17 08:44:43;;;;;;;43.10;22.38;;;16.00;96.20;;;;;;6217225;23;20027;-80
2021/07/17 08:47:09;;;;;;;41.97;23.55;;;16.00;95.60;;;;;;6192859;23;20063;-80
2021/07/17 08:49:37;;;;;;;46.83;26.15;;;16.00;96.20;;;;;;6192509;23;20438;-80
2021/07/17 08:52:04;;;;;;;44.38;24.27;;;16.00;96.40;;;;;;6192514;23;20001;-79
2021/07/17 08:54:29;;;;;;;65.88;24.88;;;15.90;96.20;;;;;;6192968;23;20024;-80
2021/07/17 08:56:56;;;;;;;43.75;24.00;;;15.90;96.00;;;;;;6192790;23;20005;-80
2021/07/17 08:59:22;;;;;;;46.65;23.67;;;15.90;95.60;;;;;;6217502;23;20050;-80
2021/07/17 09:01:49;;;;;;;51.63;26.58;;;16.00;95.60;;;;;;6192697;23;20009;-80
2021/07/17 09:04:16;;;;;;;44.58;22.92;;;16.00;95.80;;;;;;6192640;23;20405;-79
2021/07/17 09:06:44;;;;;;;40.08;21.58;;;15.90;96.40;;;;;;6218413;23;20086;-80
2021/07/17 09:09:30;;;;;;;35.25;20.38;;;16.00;95.60;;;;;;6218101;23;20001;-80
2021/07/17 09:11:56;;;;;;;38.65;21.70;;;16.00;95.50;;;;;;6218976;23;20073;-81
2021/07/17 09:14:40;;;;;;;34.53;20.08;;;16.00;96.40;;;;;;6217383;23;20361;-80
2021/07/17 09:17:08;;;;;;;35.30;19.90;;;16.00;96.50;;;;;;6192275;23;20008;-80
2021/07/17 09:19:34;;;;;;;31.42;18.52;;;16.10;96.80;;;;;;6192631;23;20255;-79
2021/07/17 09:22:01;;;;;;;34.40;19.13;;;16.30;96.50;;;;;;6218391;23;20059;-81
2021/07/17 09:24:27;;;;;;;32.30;18.83;;;16.40;96.90;;;;;;6192332;23;20270;-81
2021/07/17 09:26:58;;;;;;;36.25;21.05;;;16.40;97.30;;;;;;6218718;23;20004;-80
2021/07/17 09:29:34;;;;;;;30.42;18.27;;;16.40;97.40;;;;;;6217547;23;20005;-81
2021/07/17 09:32:00;;;;;;;41.67;20.13;;;16.40;97.60;;;;;;6192141;23;20581;-80
2021/07/17 09:34:30;;;;;;;43.63;19.90;;;16.40;97.60;;;;;;6218873;23;19997;-81
2021/07/17 09:37:09;;;;;;;35.88;21.08;;;16.40;98.00;;;;;;6218677;23;20315;-81
2021/07/17 09:39:37;;;;;;;36.08;21.33;;;16.40;97.80;;;;;;6218614;23;20071;-80
2021/07/17 09:42:12;;;;;;;41.60;21.45;;;16.30;97.40;;;;;;6218734;23;20077;-80
2021/07/17 09:44:38;;;;;;;38.42;20.67;;;16.30;97.20;;;;;;6216879;23;20008;-80
2021/07/17 09:47:25;;;;;;;31.58;19.42;;;16.30;97.30;;;;;;6192055;23;20090;-80
2021/07/17 09:50:14;;;;;;;38.45;21.45;;;16.30;96.50;;;;;;6191578;23;20025;-80
2021/07/17 09:52:49;;;;;;;43.55;22.95;;;16.30;97.30;;;;;;6218222;23;20103;-80
2021/07/17 09:55:16;;;;;;;34.42;19.80;;;16.20;97.20;;;;;;6191927;23;20004;-79
2021/07/17 09:57:42;;;;;;;29.63;17.38;;;16.20;96.40;;;;;;6218293;23;20070;-79
2021/07/17 10:00:08;;;;;;;32.63;19.05;;;16.20;96.50;;;;;;6216708;23;19997;-80
2021/07/17 10:02:39;;;;;;;36.13;19.35;;;16.20;96.20;;;;;;6191354;23;20048;-80
2021/07/17 10:05:10;;;;;;;29.77;18.48;;;16.30;96.00;;;;;;6217967;23;19997;-78
2021/07/17 10:07:37;;;;;;;29.38;17.00;;;16.30;96.60;;;;;;6191583;23;20091;-79
2021/07/17 10:10:05;;;;;;;36.08;19.52;;;16.20;96.10;;;;;;6218635;23;20007;-80
2021/07/17 10:12:38;;;;;;;31.85;18.52;;;16.30;95.90;;;;;;6192148;23;20013;-79
2021/07/17 10:15:07;;;;;;;30.35;18.17;;;16.40;95.40;;;;;;6216701;23;20051;-79
2021/07/17 10:17:41;;;;;;;26.60;15.63;;;16.40;96.40;;;;;;6218051;23;20011;-79
2021/07/17 10:20:16;;;;;;;23.33;14.52;;;16.40;96.50;;;;;;6217317;23;20374;-80
2021/07/17 10:22:43;;;;;;;22.33;15.07;;;16.40;96.60;;;;;;6218598;23;20190;-79
2021/07/17 10:25:12;;;;;;;20.35;14.25;;;16.40;96.00;;;;;;6193403;23;20005;-79
2021/07/17 10:27:38;;;;;;;22.98;14.77;;;16.50;95.60;;;;;;6192611;23;20266;-79
2021/07/17 10:30:06;;;;;;;25.58;14.60;;;16.50;96.90;;;;;;6191472;23;20007;-79
2021/07/17 10:32:32;;;;;;;34.00;15.05;;;16.60;96.80;;;;;;6219641;23;20000;-79
2021/07/17 10:34:58;;;;;;;25.67;15.10;;;16.50;97.20;;;;;;6219173;23;20003;-79
2021/07/17 10:37:30;;;;;;;27.42;16.55;;;16.50;97.20;;;;;;6220043;23;20059;-79
2021/07/17 10:40:08;;;;;;;25.90;14.43;;;16.60;96.20;;;;;;6219826;23;20071;-80
2021/07/17 10:42:35;;;;;;;22.33;14.07;;;16.80;97.10;;;;;;6220059;23;20001;-80
2021/07/17 10:45:01;;;;;;;25.80;16.70;;;16.70;98.00;;;;;;6218926;23;20012;-80
2021/07/17 10:47:45;;;;;;;22.95;14.73;;;16.70;98.00;;;;;;6219872;23;20083;-80
2021/07/17 10:50:14;;;;;;;23.05;14.95;;;16.70;98.00;;;;;;6220148;23;20040;-79
2021/07/17 10:52:43;;;;;;;21.88;14.65;;;16.70;97.90;;;;;;6193684;23;20008;-80
2021/07/17 10:55:38;;;;;;;26.73;16.13;;;16.80;97.90;;;;;;6193137;23;20009;-80
2021/07/17 10:58:12;;;;;;;32.17;18.30;;;16.70;97.90;;;;;;6217670;23;20164;-80
2021/07/17 11:00:41;;;;;;;25.33;16.23;;;16.80;97.70;;;;;;6217761;23;20086;-80
2021/07/17 11:03:32;;;;;;;31.42;18.83;;;16.80;97.40;;;;;;6219437;23;20005;-80
2021/07/17 11:06:26;;;;;;;39.65;20.30;;;16.70;97.50;;;;;;6220150;23;20000;-80
2021/07/17 11:08:56;;;;;;;43.80;23.42;;;16.70;97.90;;;;;;6220281;23;20028;-80
2021/07/17 11:11:27;;;;;;;38.20;21.58;;;16.70;97.60;;;;;;6219435;23;20005;-79
2021/07/17 11:13:54;;;;;;;34.88;21.23;;;16.60;97.60;;;;;;6220008;23;20020;-79
2021/07/17 11:16:53;;;;;;;35.08;21.58;;;16.50;97.50;;;;;;6218814;23;19997;-79
2021/07/17 11:19:29;;;;;;;38.38;22.92;;;16.60;97.40;;;;;;6207034;23;20070;-80
2021/07/17 11:21:56;;;;;;;41.50;24.13;;;16.50;97.10;;;;;;6219546;23;20363;-80
2021/07/17 11:24:26;;;;;;;40.05;22.10;;;16.60;97.20;;;;;;6219391;23;20011;-79
2021/07/17 11:27:17;;;;;;;36.22;21.70;;;16.60;96.70;;;;;;6193403;23;20005;-80
2021/07/17 11:29:48;;;;;;;40.53;23.05;;;16.70;96.90;;;;;;6210848;23;20011;-81
2021/07/17 11:32:16;;;;;;;37.25;23.30;;;16.60;97.20;;;;;;6192095;23;20032;-79
2021/07/17 11:34:50;;;;;;;39.70;25.00;;;16.60;97.20;;;;;;6219144;23;20004;-80
2021/07/17 11:37:20;;;;;;;45.38;24.42;;;16.60;97.00;;;;;;6219141;23;20243;-80
2021/07/17 11:39:50;;;;;;;42.38;24.15;;;16.70;97.00;;;;;;6218593;23;19996;-80
2021/07/17 11:42:19;;;;;;;45.03;24.20;;;16.70;97.50;;;;;;6218596;23;20004;-81
2021/07/17 11:44:56;;;;;;;49.80;27.23;;;16.70;97.20;;;;;;6217435;23;20067;-80
2021/07/17 11:47:26;;;;;;;38.47;23.25;;;16.80;97.40;;;;;;6219582;23;20009;-79
2021/07/17 11:49:54;;;;;;;43.08;24.25;;;16.90;97.10;;;;;;6219341;23;20011;-80
2021/07/17 11:52:31;;;;;;;38.92;22.75;;;17.00;97.30;;;;;;6219309;23;20007;-80
2021/07/17 11:55:12;;;;;;;40.20;23.83;;;17.20;97.70;;;;;;6192145;23;20004;-80
2021/07/17 11:57:45;;;;;;;38.70;21.27;;;17.40;98.00;;;;;;6218497;23;20001;-79
2021/07/17 12:00:19;;;;;;;40.60;23.20;;;17.50;98.00;;;;;;6216448;23;20004;-80
2021/07/17 12:02:54;;;;;;;35.05;21.77;;;17.60;98.00;;;;;;6191821;23;20011;-80
2021/07/17 12:05:20;;;;;;;30.50;18.80;;;17.70;98.00;;;;;;6219672;23;20258;-81
2021/07/17 12:07:47;;;;;;;42.08;19.95;;;17.60;98.00;;;;;;6218943;23;20004;-81
2021/07/17 12:10:19;;;;;;;37.78;22.98;;;17.70;98.00;;;;;;6219285;23;19997;-81
2021/07/17 12:12:52;;;;;;;42.33;23.52;;;17.60;98.00;;;;;;6193050;23;20005;-79
2021/07/17 12:15:33;;;;;;;41.63;25.05;;;17.60;98.00;;;;;;6218029;23;20000;-81
2021/07/17 12:18:17;;;;;;;33.70;22.33;;;17.50;98.00;;;;;;6219381;23;20397;-81
2021/07/17 12:20:48;;;;;;;43.22;26.45;;;17.60;98.00;;;;;;6219381;23;20005;-81
2021/07/17 12:23:24;;;;;;;40.40;25.58;;;17.60;98.00;;;;;;6219086;23;20008;-81
2021/07/17 12:25:59;;;;;;;43.50;25.83;;;17.50;98.00;;;;;;6219503;23;20004;-81
2021/07/17 12:28:36;;;;;;;41.38;23.35;;;17.50;98.00;;;;;;6192878;23;20374;-81
2021/07/17 12:31:10;;;;;;;45.60;24.63;;;17.50;98.00;;;;;;6217713;23;20000;-81
2021/07/17 12:33:39;;;;;;;37.22;24.38;;;17.40;98.00;;;;;;6219148;23;19996;-81